createdAt,value
2022-12-13T00:01:20.231Z,3.10
2022-12-13T00:03:47.244Z,2.47
2022-12-13T00:06:14.798Z,3.20
2022-12-13T00:08:42.192Z,2.72
2022-12-13T00:11:12.084Z,2.95
2022-12-13T00:13:39.332Z,3.40
2022-12-13T00:16:08.780Z,3.22
2022-12-13T00:18:35.588Z,3.10
2022-12-13T00:21:07.794Z,2.70
2022-12-13T00:23:34.925Z,2.97
2022-12-13T00:26:13.541Z,3.47
2022-12-13T00:28:40.859Z,3.40
2022-12-13T00:31:52.989Z,2.63
2022-12-13T00:33:55.460Z,2.90
2022-12-13T00:36:22.545Z,2.30
2022-12-13T00:39:00.329Z,3.10
2022-12-13T00:41:30.427Z,3.17
2022-12-13T00:43:57.689Z,2.78
2022-12-13T00:46:24.719Z,2.63
2022-12-13T00:48:54.010Z,2.90
2022-12-13T00:51:22.003Z,2.92
2022-12-13T00:53:49.119Z,2.60
2022-12-13T00:56:19.644Z,2.42
2022-12-13T00:58:51.661Z,2.60
2022-12-13T01:01:21.682Z,2.55
2022-12-13T01:03:50.399Z,2.67
2022-12-13T01:06:42.380Z,3.25
2022-12-13T01:09:17.395Z,3.05
2022-12-13T01:11:45.223Z,2.63
2022-12-13T01:14:12.203Z,3.20
2022-12-13T01:16:39.146Z,2.92
2022-12-13T01:19:05.963Z,2.63
2022-12-13T01:21:33.011Z,3.20
2022-12-13T01:24:05.117Z,4.25
2022-12-13T01:26:33.320Z,4.75
2022-12-13T01:29:00.512Z,4.40
2022-12-13T01:31:27.742Z,4.18
2022-12-13T01:33:54.722Z,3.40
2022-12-13T01:36:26.964Z,4.05
2022-12-13T01:38:54.004Z,3.85
2022-12-13T01:41:27.219Z,2.90
2022-12-13T01:44:03.629Z,3.38
2022-12-13T01:46:35.427Z,3.40
2022-12-13T01:49:04.987Z,3.22
2022-12-13T01:51:54.305Z,3.28
2022-12-13T01:54:25.167Z,3.33
2022-12-13T01:57:02.308Z,2.38
2022-12-13T01:59:29.464Z,3.25
2022-12-13T02:02:00.624Z,2.80
2022-12-13T02:04:37.421Z,3.20
2022-12-13T02:07:22.644Z,2.80
2022-12-13T02:09:57.176Z,2.97
2022-12-13T02:12:30.389Z,2.60
2022-12-13T02:15:01.194Z,2.65
2022-12-13T02:18:02.294Z,2.95
2022-12-13T02:20:50.120Z,2.72
2022-12-13T02:23:16.804Z,2.60
2022-12-13T02:25:55.324Z,2.72
2022-12-13T02:28:31.872Z,2.45
2022-12-13T02:31:25.873Z,3.33
2022-12-13T02:34:10.148Z,2.80
2022-12-13T02:37:18.096Z,3.53
2022-12-13T02:39:54.127Z,2.88
2022-12-13T02:42:37.707Z,3.22
2022-12-13T02:45:20.356Z,3.05
2022-12-13T02:47:49.263Z,2.67
2022-12-13T02:50:16.315Z,3.13
2022-12-13T02:52:46.489Z,2.53
2022-12-13T02:55:15.970Z,3.17
2022-12-13T02:57:45.551Z,2.75
2022-12-13T03:00:20.442Z,2.67
2022-12-13T03:03:05.227Z,3.00
2022-12-13T03:06:05.601Z,2.90
2022-12-13T03:08:44.208Z,2.50
2022-12-13T03:11:20.041Z,3.20
2022-12-13T03:14:06.384Z,3.60
2022-12-13T03:16:43.243Z,3.40
2022-12-13T03:19:12.192Z,3.00
2022-12-13T03:21:47.901Z,3.15
2022-12-13T03:24:17.766Z,3.30
2022-12-13T03:26:45.404Z,2.47
2022-12-13T03:29:12.221Z,2.40
2022-12-13T03:31:39.085Z,3.17
2022-12-13T03:34:06.086Z,2.90
2022-12-13T03:36:33.119Z,3.42
2022-12-13T03:38:59.975Z,3.28
2022-12-13T03:41:31.545Z,3.60
2022-12-13T03:44:00.135Z,3.35
2022-12-13T03:46:27.017Z,3.15
2022-12-13T03:48:53.899Z,3.00
2022-12-13T03:51:20.677Z,2.78
2022-12-13T03:53:47.476Z,2.75
2022-12-13T03:56:14.262Z,3.22
2022-12-13T03:58:43.855Z,2.92
2022-12-13T04:01:16.230Z,2.20
2022-12-13T04:03:45.552Z,3.38
2022-12-13T04:06:12.973Z,3.22
2022-12-13T04:08:51.044Z,2.83
2022-12-13T04:11:43.030Z,3.08
2022-12-13T04:14:11.741Z,3.00
2022-12-13T04:16:38.769Z,2.70
2022-12-13T04:19:05.697Z,3.17
2022-12-13T04:21:32.507Z,2.95
2022-12-13T04:24:00.923Z,3.55
2022-12-13T04:26:29.049Z,2.80
2022-12-13T04:28:56.153Z,2.83
2022-12-13T04:31:23.530Z,3.00
2022-12-13T04:33:50.722Z,2.85
2022-12-13T04:36:31.672Z,3.20
2022-12-13T04:39:04.039Z,3.20
2022-12-13T04:41:51.785Z,2.75
2022-12-13T04:44:29.006Z,2.92
2022-12-13T04:47:00.980Z,3.15
2022-12-13T04:49:29.241Z,3.08
2022-12-13T04:52:00.507Z,2.28
2022-12-13T04:54:28.544Z,3.17
2022-12-13T04:57:05.329Z,2.85
2022-12-13T04:59:32.063Z,2.63
2022-12-13T05:01:58.972Z,2.80
2022-12-13T05:04:32.141Z,2.45
2022-12-13T05:06:59.666Z,3.08
2022-12-13T05:09:26.515Z,2.83
2022-12-13T05:12:01.781Z,3.15
2022-12-13T05:14:30.420Z,3.25
2022-12-13T05:16:57.354Z,2.50
2022-12-13T05:19:30.701Z,2.38
2022-12-13T05:22:01.223Z,2.78
2022-12-13T05:24:29.668Z,3.30
2022-12-13T05:26:57.105Z,2.15
2022-12-13T05:29:23.879Z,2.50
2022-12-13T05:31:51.091Z,2.30
2022-12-13T05:34:17.918Z,2.55
2022-12-13T05:36:44.685Z,2.20
2022-12-13T05:39:29.451Z,2.90
2022-12-13T05:42:01.946Z,2.20
2022-12-13T05:44:30.224Z,2.90
2022-12-13T05:46:57.023Z,3.05
2022-12-13T05:49:23.811Z,2.85
2022-12-13T05:51:50.731Z,3.83
2022-12-13T05:54:17.533Z,4.30
2022-12-13T05:56:44.625Z,3.97
2022-12-13T05:59:11.425Z,3.92
2022-12-13T06:01:38.231Z,3.45
2022-12-13T06:04:12.481Z,4.20
2022-12-13T06:06:51.052Z,3.85
2022-12-13T06:09:20.518Z,4.00
2022-12-13T06:11:47.898Z,3.88
2022-12-13T06:14:21.464Z,3.10
2022-12-13T06:16:50.572Z,3.55
2022-12-13T06:19:17.457Z,4.03
2022-12-13T06:21:46.489Z,3.75
2022-12-13T06:24:15.506Z,3.42
2022-12-13T06:26:42.902Z,3.25
2022-12-13T06:29:12.738Z,3.33
2022-12-13T06:32:01.437Z,3.53
2022-12-13T06:34:30.392Z,3.50
2022-12-13T06:36:57.317Z,3.47
2022-12-13T06:39:24.169Z,3.05
2022-12-13T06:41:59.345Z,3.33
2022-12-13T06:44:26.185Z,3.70
2022-12-13T06:46:52.953Z,2.90
2022-12-13T06:49:40.598Z,3.22
2022-12-13T06:52:13.244Z,3.67
2022-12-13T06:54:40.611Z,2.72
2022-12-13T06:57:08.037Z,2.65
2022-12-13T06:59:34.925Z,5.20
2022-12-13T07:02:03.175Z,4.82
2022-12-13T07:04:31.454Z,4.35
2022-12-13T07:07:01.099Z,4.18
2022-12-13T07:09:31.026Z,3.47
2022-12-13T07:11:58.703Z,3.70
2022-12-13T07:14:25.762Z,2.90
2022-12-13T07:16:55.472Z,3.13
2022-12-13T07:19:26.358Z,3.47
2022-12-13T07:22:01.752Z,3.47
2022-12-13T07:24:28.516Z,3.80
2022-12-13T07:26:56.182Z,4.22
2022-12-13T07:29:23.428Z,3.08
2022-12-13T07:31:50.302Z,3.80
2022-12-13T07:34:17.520Z,3.30
2022-12-13T07:36:44.263Z,3.67
2022-12-13T07:39:11.034Z,3.90
2022-12-13T07:41:37.850Z,3.53
2022-12-13T07:44:04.926Z,3.38
2022-12-13T07:46:32.862Z,3.35
2022-12-13T07:49:05.364Z,3.10
2022-12-13T07:51:34.814Z,2.85
2022-12-13T07:54:06.344Z,3.25
2022-12-13T07:56:34.107Z,3.10
2022-12-13T07:59:00.916Z,2.97
2022-12-13T08:01:28.557Z,2.78
2022-12-13T08:03:55.366Z,2.63
2022-12-13T08:06:22.147Z,2.72
2022-12-13T08:08:51.167Z,2.70
2022-12-13T08:11:18.179Z,2.58
2022-12-13T08:13:45.076Z,3.17
2022-12-13T08:16:28.412Z,3.33
2022-12-13T08:19:02.527Z,3.40
2022-12-13T08:21:54.093Z,2.78
2022-12-13T08:24:22.111Z,2.63
2022-12-13T08:26:48.990Z,2.88
2022-12-13T08:29:23.397Z,3.17
2022-12-13T08:32:13.160Z,3.20
2022-12-13T08:34:41.540Z,3.45
2022-12-13T08:37:09.074Z,2.88
2022-12-13T08:39:37.684Z,3.00
2022-12-13T08:42:19.825Z,3.53
2022-12-13T08:44:52.056Z,3.15
2022-12-13T08:47:22.701Z,2.42
2022-12-13T08:50:01.776Z,2.83
2022-12-13T08:52:31.844Z,2.60
2022-12-13T08:54:58.696Z,3.00
2022-12-13T08:57:25.596Z,2.38
2022-12-13T08:59:54.138Z,2.30
2022-12-13T09:02:20.952Z,2.65
2022-12-13T09:04:47.795Z,2.55
2022-12-13T09:07:14.693Z,2.65
2022-12-13T09:09:41.560Z,2.50
2022-12-13T09:12:10.801Z,2.67
2022-12-13T09:14:45.060Z,3.13
2022-12-13T09:17:24.361Z,3.00
2022-12-13T09:19:58.350Z,2.85
2022-12-13T09:22:33.016Z,2.60
2022-12-13T09:25:03.099Z,3.25
2022-12-13T09:27:39.668Z,3.20
2022-12-13T09:30:08.930Z,2.40
2022-12-13T09:32:36.457Z,3.13
2022-12-13T09:35:03.284Z,2.97
2022-12-13T09:37:30.888Z,3.22
2022-12-13T09:39:57.725Z,2.53
2022-12-13T09:42:30.592Z,2.80
2022-12-13T09:45:06.410Z,2.58
2022-12-13T09:47:51.437Z,3.90
2022-12-13T09:50:30.614Z,5.72
2022-12-13T09:53:21.148Z,5.07
2022-12-13T09:55:51.316Z,4.97
2022-12-13T09:58:27.767Z,4.25
2022-12-13T10:00:56.323Z,5.50
2022-12-13T10:03:25.158Z,5.10
2022-12-13T10:06:15.211Z,5.40
2022-12-13T10:08:58.625Z,4.88
2022-12-13T10:11:31.477Z,5.65
2022-12-13T10:14:08.743Z,5.93
2022-12-13T10:16:38.379Z,5.90
2022-12-13T10:19:35.281Z,6.03
2022-12-13T10:22:04.717Z,5.72
2022-12-13T10:24:52.291Z,5.57
2022-12-13T10:27:38.145Z,6.65
2022-12-13T10:30:28.801Z,8.10
2022-12-13T10:33:01.997Z,6.40
2022-12-13T10:35:31.171Z,8.43
2022-12-13T10:38:00.686Z,9.13
2022-12-13T10:40:46.687Z,9.38
2022-12-13T10:43:23.505Z,9.45
2022-12-13T10:45:59.348Z,9.73
2022-12-13T10:48:49.310Z,9.50
2022-12-13T10:51:20.146Z,7.97
2022-12-13T10:53:56.395Z,6.35
2022-12-13T10:56:36.220Z,7.57
2022-12-13T10:59:17.281Z,7.13
2022-12-13T11:01:44.870Z,6.38
2022-12-13T11:04:27.431Z,5.10
2022-12-13T11:06:56.148Z,4.70
2022-12-13T11:09:39.102Z,5.45
2022-12-13T11:12:19.762Z,5.45
2022-12-13T11:15:06.424Z,5.25
2022-12-13T11:17:39.550Z,4.82
2022-12-13T11:20:19.103Z,5.18
2022-12-13T11:22:45.962Z,6.40
2022-12-13T11:25:38.717Z,6.50
2022-12-13T11:28:26.396Z,8.82
2022-12-13T11:31:28.358Z,7.55
2022-12-13T11:34:34.007Z,8.20
2022-12-13T11:37:22.376Z,8.35
2022-12-13T11:40:03.612Z,8.10
2022-12-13T11:42:48.426Z,9.48
2022-12-13T11:45:30.281Z,8.25
2022-12-13T11:48:08.980Z,7.22
2022-12-13T11:50:37.763Z,6.07
2022-12-13T11:53:29.655Z,6.13
2022-12-13T11:56:08.423Z,5.55
2022-12-13T11:59:20.676Z,5.28
2022-12-13T12:02:16.844Z,5.18
2022-12-13T12:05:00.432Z,5.18
2022-12-13T12:08:12.600Z,6.15
2022-12-13T12:10:47.384Z,4.05
2022-12-13T12:13:19.153Z,5.30
2022-12-13T12:16:08.517Z,4.53
2022-12-13T12:18:38.243Z,5.35
2022-12-13T12:21:19.174Z,5.30
2022-12-13T12:23:57.560Z,4.55
2022-12-13T12:26:55.685Z,4.05
2022-12-13T12:29:31.992Z,4.75
2022-12-13T12:32:25.832Z,5.65
2022-12-13T12:35:40.418Z,7.00
2022-12-13T12:38:32.424Z,6.93
2022-12-13T12:41:17.762Z,6.38
2022-12-13T12:43:49.410Z,6.57
2022-12-13T12:47:09.308Z,5.18
2022-12-13T12:49:55.982Z,5.85
2022-12-13T12:52:41.674Z,4.40
2022-12-13T12:55:39.413Z,5.05
2022-12-13T12:58:15.532Z,4.50
2022-12-13T13:00:52.569Z,5.82
2022-12-13T13:03:23.890Z,5.53
2022-12-13T13:06:16.556Z,5.60
2022-12-13T13:08:55.521Z,5.43
2022-12-13T13:11:25.924Z,5.88
2022-12-13T13:14:01.698Z,5.40
2022-12-13T13:16:36.840Z,5.65
2022-12-13T13:19:32.324Z,5.45
2022-12-13T13:22:01.927Z,5.32
2022-12-13T13:24:31.375Z,5.32
2022-12-13T13:27:28.208Z,5.28
2022-12-13T13:30:21.487Z,4.32
2022-12-13T13:32:49.889Z,3.85
2022-12-13T13:35:31.997Z,4.18
2022-12-13T13:38:06.381Z,4.80
2022-12-13T13:40:36.734Z,5.10
2022-12-13T13:43:06.329Z,4.72
2022-12-13T13:46:02.785Z,4.95
2022-12-13T13:48:35.604Z,5.80
2022-12-13T13:51:08.671Z,6.35
2022-12-13T13:53:50.674Z,5.90
2022-12-13T13:56:50.243Z,5.07
2022-12-13T13:59:40.828Z,4.70
2022-12-13T14:02:29.064Z,3.75
2022-12-13T14:05:04.788Z,3.20
2022-12-13T14:08:13.685Z,3.83
2022-12-13T14:10:57.583Z,3.17
2022-12-13T14:13:45.146Z,3.35
2022-12-13T14:16:46.289Z,3.13
2022-12-13T14:19:37.960Z,3.28
2022-12-13T14:22:05.114Z,2.95
2022-12-13T14:24:39.932Z,2.20
2022-12-13T14:27:35.072Z,2.67
2022-12-13T14:30:26.638Z,2.17
2022-12-13T14:32:50.413Z,2.00
2022-12-13T14:35:30.791Z,1.98
2022-12-13T14:38:20.371Z,2.28
2022-12-13T14:40:53.405Z,2.10
2022-12-13T14:43:26.877Z,2.35
2022-12-13T14:46:00.261Z,2.08
2022-12-13T14:48:34.190Z,2.03
2022-12-13T14:51:01.055Z,2.45
2022-12-13T14:53:33.318Z,1.88
2022-12-13T14:56:28.287Z,2.00
2022-12-13T14:59:02.208Z,1.90
2022-12-13T15:01:35.409Z,2.33
2022-12-13T15:04:18.370Z,2.15
2022-12-13T15:06:48.419Z,2.22
2022-12-13T15:09:16.555Z,2.28
2022-12-13T15:11:45.162Z,2.10
2022-12-13T15:14:18.542Z,2.10
2022-12-13T15:16:50.520Z,2.20
2022-12-13T15:19:30.994Z,2.30
2022-12-13T15:22:02.641Z,3.05
2022-12-13T15:24:38.649Z,4.28
2022-12-13T15:27:05.924Z,3.95
2022-12-13T15:29:36.883Z,4.07
2022-12-13T15:32:05.525Z,3.60
2022-12-13T15:34:35.329Z,3.80
2022-12-13T15:37:28.069Z,3.20
2022-12-13T15:40:00.505Z,2.65
2022-12-13T15:42:32.314Z,2.80
2022-12-13T15:45:02.520Z,2.60
2022-12-13T15:47:29.572Z,2.83
2022-12-13T15:50:06.275Z,2.60
2022-12-13T15:52:36.938Z,2.60
2022-12-13T15:55:07.075Z,2.67
2022-12-13T15:57:36.541Z,2.70
2022-12-13T16:00:10.848Z,2.33
2022-12-13T16:02:53.144Z,2.42
2022-12-13T16:05:36.169Z,2.55
2022-12-13T16:08:16.983Z,2.22
2022-12-13T16:10:51.703Z,2.33
2022-12-13T16:13:33.804Z,2.30
2022-12-13T16:16:28.111Z,2.53
2022-12-13T16:19:00.396Z,2.72
2022-12-13T16:21:28.588Z,2.90
2022-12-13T16:23:55.461Z,2.97
2022-12-13T16:26:25.670Z,2.95
2022-12-13T16:28:53.885Z,3.53
2022-12-13T16:31:24.029Z,2.75
2022-12-13T16:33:51.306Z,2.55
2022-12-13T16:36:18.296Z,2.50
2022-12-13T16:38:45.103Z,2.38
2022-12-13T16:41:12.135Z,2.38
2022-12-13T16:43:46.534Z,2.72
2022-12-13T16:47:14.383Z,2.75
2022-12-13T16:49:05.235Z,2.60
2022-12-13T16:51:32.065Z,3.05
2022-12-13T16:53:58.821Z,3.95
2022-12-13T16:56:25.581Z,3.85
2022-12-13T16:58:52.390Z,4.93
2022-12-13T17:01:20.382Z,5.50
2022-12-13T17:03:48.003Z,5.90
2022-12-13T17:06:17.880Z,4.72
2022-12-13T17:08:44.661Z,5.70
2022-12-13T17:11:17.582Z,5.30
2022-12-13T17:13:46.996Z,5.28
2022-12-13T17:16:14.261Z,5.32
2022-12-13T17:18:41.218Z,6.22
2022-12-13T17:21:09.672Z,6.43
2022-12-13T17:23:36.909Z,5.60
2022-12-13T17:26:08.287Z,5.75
2022-12-13T17:28:35.289Z,5.38
2022-12-13T17:31:12.115Z,6.63
2022-12-13T17:33:42.223Z,6.07
2022-12-13T17:36:10.678Z,5.20
2022-12-13T17:38:41.086Z,5.25
2022-12-13T17:41:07.844Z,5.55
2022-12-13T17:43:35.599Z,4.38
2022-12-13T17:46:10.426Z,5.32
2022-12-13T17:48:40.754Z,4.70
2022-12-13T17:51:13.011Z,4.15
2022-12-13T17:53:41.602Z,4.18
2022-12-13T17:56:11.973Z,3.72
2022-12-13T17:58:40.159Z,3.47
2022-12-13T18:01:14.136Z,2.80
2022-12-13T18:03:41.478Z,3.00
2022-12-13T18:06:08.661Z,3.33
2022-12-13T18:08:37.159Z,3.10
2022-12-13T18:13:54.989Z,2.97
2022-12-13T18:16:26.717Z,4.72
2022-12-13T18:18:57.159Z,4.50
2022-12-13T18:21:25.277Z,5.25
2022-12-13T18:23:55.225Z,5.40
2022-12-13T18:26:23.595Z,5.30
2022-12-13T18:28:50.707Z,5.05
2022-12-13T18:31:22.027Z,5.18
2022-12-13T18:33:50.216Z,5.80
2022-12-13T18:36:18.157Z,5.57
2022-12-13T18:38:45.285Z,4.60
2022-12-13T18:41:14.844Z,4.53
2022-12-13T18:43:43.022Z,3.72
2022-12-13T18:46:13.447Z,3.25
2022-12-13T18:48:40.947Z,2.58
2022-12-13T18:51:09.719Z,3.22
2022-12-13T18:53:38.376Z,3.38
2022-12-13T18:56:11.627Z,3.40
2022-12-13T18:58:43.266Z,3.83
2022-12-13T19:01:12.794Z,3.90
2022-12-13T19:03:39.980Z,4.45
2022-12-13T19:06:07.708Z,4.20
2022-12-13T19:08:36.577Z,3.72
2022-12-13T19:11:04.165Z,4.50
2022-12-13T19:13:32.872Z,4.40
2022-12-13T19:16:07.611Z,4.65
2022-12-13T19:18:35.368Z,4.13
2022-12-13T19:21:03.052Z,4.18
2022-12-13T19:23:30.170Z,4.07
2022-12-13T19:25:57.300Z,4.05
2022-12-13T19:28:24.224Z,3.97
2022-12-13T19:30:51.252Z,5.00
2022-12-13T19:33:18.645Z,5.50
2022-12-13T19:35:46.662Z,4.78
2022-12-13T19:38:13.829Z,5.00
2022-12-13T19:40:42.647Z,4.00
2022-12-13T19:43:11.562Z,5.65
2022-12-13T19:45:38.765Z,6.03
2022-12-13T19:48:05.676Z,6.25
2022-12-13T19:50:32.720Z,6.07
2022-12-13T19:52:59.742Z,5.97
2022-12-13T19:55:26.674Z,5.78
2022-12-13T19:57:53.837Z,5.40
2022-12-13T20:00:23.604Z,5.32
2022-12-13T20:02:50.794Z,4.53
2022-12-13T20:05:18.645Z,4.90
2022-12-13T20:07:45.987Z,4.82
2022-12-13T20:10:15.573Z,4.10
2022-12-13T20:12:42.437Z,4.70
2022-12-13T20:15:10.825Z,4.03
2022-12-13T20:17:37.656Z,3.78
2022-12-13T20:20:05.415Z,3.97
2022-12-13T20:22:33.766Z,3.70
2022-12-13T20:25:00.891Z,4.70
2022-12-13T20:27:28.069Z,3.95
2022-12-13T20:29:54.980Z,4.20
2022-12-13T20:32:22.176Z,3.85
2022-12-13T20:34:53.207Z,4.68
2022-12-13T20:37:22.252Z,4.07
2022-12-13T20:39:49.496Z,4.10
2022-12-13T20:42:16.691Z,3.85
2022-12-13T20:44:44.238Z,4.15
2022-12-13T20:47:11.110Z,3.70
2022-12-13T20:49:38.061Z,3.28
2022-12-13T20:52:05.070Z,4.35
2022-12-13T20:54:31.840Z,4.95
2022-12-13T20:56:58.603Z,4.35
2022-12-13T20:59:25.416Z,4.50
2022-12-13T21:01:52.243Z,5.03
2022-12-13T21:04:19.208Z,5.85
2022-12-13T21:06:46.026Z,4.82
2022-12-13T21:09:12.940Z,4.65
2022-12-13T21:11:47.078Z,5.32
2022-12-13T21:14:27.324Z,5.43
2022-12-13T21:16:55.607Z,4.90
2022-12-13T21:19:27.425Z,6.03
2022-12-13T21:21:55.865Z,6.90
2022-12-13T21:24:25.119Z,5.38
2022-12-13T21:26:52.709Z,5.00
2022-12-13T21:29:19.912Z,4.70
2022-12-13T21:31:50.115Z,4.57
2022-12-13T21:34:18.679Z,4.05
2022-12-13T21:36:47.840Z,4.60
2022-12-13T21:39:17.125Z,3.83
2022-12-13T21:41:44.784Z,3.72
2022-12-13T21:44:14.643Z,3.78
2022-12-13T21:47:10.647Z,3.35
2022-12-13T21:49:28.954Z,4.18
2022-12-13T21:51:55.760Z,3.47
2022-12-13T21:54:22.867Z,4.70
2022-12-13T21:57:08.626Z,4.22
2022-12-13T21:59:35.736Z,4.72
2022-12-13T22:02:24.317Z,4.00
2022-12-13T22:04:52.603Z,4.10
2022-12-13T22:07:22.751Z,4.97
2022-12-13T22:09:50.374Z,3.80
2022-12-13T22:12:20.496Z,4.72
2022-12-13T22:14:48.204Z,5.13
2022-12-13T22:17:15.195Z,4.93
2022-12-13T22:19:42.002Z,4.72
2022-12-13T22:22:09.415Z,4.93
2022-12-13T22:24:36.632Z,4.60
2022-12-13T22:27:03.627Z,5.28
2022-12-13T22:29:30.413Z,4.70
2022-12-13T22:31:57.210Z,4.72
2022-12-13T22:34:24.117Z,5.75
2022-12-13T22:36:50.853Z,5.18
2022-12-13T22:39:19.598Z,4.85
2022-12-13T22:41:47.615Z,5.07
2022-12-13T22:44:16.192Z,4.60
2022-12-13T22:46:43.263Z,3.55
2022-12-13T22:49:11.390Z,3.50
2022-12-13T22:51:38.887Z,3.80
2022-12-13T22:54:05.987Z,3.22
2022-12-13T22:56:33.273Z,2.80
2022-12-13T22:59:02.245Z,3.00
2022-12-13T23:01:33.885Z,2.88
2022-12-13T23:04:01.093Z,3.40
2022-12-13T23:06:30.338Z,2.60
2022-12-13T23:08:59.918Z,2.47
2022-12-13T23:11:46.851Z,2.17
2022-12-13T23:14:16.739Z,2.15
2022-12-13T23:16:43.689Z,2.03
2022-12-13T23:22:05.356Z,1.55
2022-12-13T23:24:32.197Z,1.70
2022-12-13T23:26:59.032Z,2.25
2022-12-13T23:29:26.027Z,2.45
2022-12-13T23:31:52.872Z,2.15
2022-12-13T23:34:19.701Z,2.13
2022-12-13T23:36:46.465Z,2.83
2022-12-13T23:39:13.245Z,3.10
2022-12-13T23:41:40.031Z,3.00
2022-12-13T23:44:06.872Z,3.13
2022-12-13T23:46:35.743Z,2.92
2022-12-13T23:49:05.530Z,2.88
2022-12-13T23:51:34.178Z,2.63
2022-12-13T23:54:01.272Z,2.30
2022-12-13T23:56:29.139Z,2.22
2022-12-13T23:58:56.088Z,2.08
